Estación de Los Colihues
Ultimos registro cada 15 minutos 31
| N° | Estación | Fecha / Hora | Temperatura | Humedad | Lluvia | Velocidad | Dirección | Radiación | Presion |
| 31 | Los Colihues | 02-09-2026 07:30 | 10,4 | 99,7 | 0,6 | 0 | 38 | 5,6 | 1009,1 |
| 30 | Los Colihues | 02-09-2026 07:15 | 10,3 | 99,6 | 0,2 | 0 | 32 | 0,6 | 1009,4 |
| 29 | Los Colihues | 02-09-2026 07:00 | 10,3 | 99,5 | 0,6 | 0 | 38 | 0,6 | 1009,2 |
| 28 | Los Colihues | 02-09-2026 06:45 | 10,3 | 99,3 | 0,6 | 0 | 27 | 0,6 | 1009,2 |
| 27 | Los Colihues | 02-09-2026 06:30 | 10,2 | 99,3 | 0 | 0 | 45 | 0,6 | 1009 |
| 26 | Los Colihues | 02-09-2026 06:15 | 10,1 | 99,4 | 0,4 | 0,5 | 69 | 0,6 | 1008,8 |
| 25 | Los Colihues | 02-09-2026 06:00 | 10 | 99,6 | 0,6 | 0 | 48 | 0,6 | 1009 |
| 24 | Los Colihues | 02-09-2026 05:45 | 10 | 99,3 | 0 | 0 | 44 | 0,6 | 1009,3 |
| 23 | Los Colihues | 02-09-2026 05:30 | 9,9 | 99,4 | 0,4 | 0,5 | 58 | 0,6 | 1008,8 |
| 22 | Los Colihues | 02-09-2026 05:15 | 9,8 | 99,6 | 0,6 | 0 | 305 | 0,6 | 1009,2 |
| 21 | Los Colihues | 02-09-2026 05:00 | 9,8 | 99,2 | 1,6 | 0 | 260 | 0,6 | 1009,4 |
| 20 | Los Colihues | 02-09-2026 04:45 | 10 | 98 | 1,6 | 0 | 253 | 0,6 | 1009,8 |
| 19 | Los Colihues | 02-09-2026 04:30 | 10 | 97 | 0,2 | 0 | 256 | 0,6 | 1009,4 |
| 18 | Los Colihues | 02-09-2026 04:15 | 10,1 | 96 | 0 | 0 | 254 | 0,6 | 1008,8 |
| 17 | Los Colihues | 02-09-2026 04:00 | 9,9 | 97,9 | 0 | 0 | 250 | 0,6 | 1008,5 |
| 16 | Los Colihues | 02-09-2026 03:45 | 9,8 | 98,5 | 0 | 0 | 250 | 0,6 | 1008,3 |
| 15 | Los Colihues | 02-09-2026 03:30 | 9,7 | 98,5 | 0 | 0 | 250 | 0,6 | 1008,1 |
| 14 | Los Colihues | 02-09-2026 03:15 | 9,5 | 99,3 | 0 | 0 | 248 | 0,6 | 1008,6 |
| 13 | Los Colihues | 02-09-2026 03:00 | 9,5 | 99,5 | 0 | 0 | 247 | 0,6 | 1008,6 |
| 12 | Los Colihues | 02-09-2026 02:45 | 9 | 99,5 | 0 | 0 | 247 | 0,6 | 1008,8 |
| 11 | Los Colihues | 02-09-2026 02:30 | 8,8 | 99,4 | 0 | 0 | 247 | 0,6 | 1008,8 |
| 10 | Los Colihues | 02-09-2026 02:15 | 8,3 | 99,5 | 0 | 0 | 247 | 0,6 | 1008,9 |
| 9 | Los Colihues | 02-09-2026 02:00 | 8,2 | 99,3 | 0 | 0 | 247 | 0,6 | 1008,9 |
| 8 | Los Colihues | 02-09-2026 01:45 | 7,8 | 99,2 | 0 | 0 | 247 | 0,6 | 1009,1 |
| 7 | Los Colihues | 02-09-2026 01:30 | 7,4 | 98,9 | 0 | 0 | 247 | 0,6 | 1009,1 |
| 6 | Los Colihues | 02-09-2026 01:15 | 8,1 | 99 | 0 | 0 | 247 | 0,6 | 1009,6 |
| 5 | Los Colihues | 02-09-2026 01:00 | 7,9 | 98,7 | 0 | 0 | 247 | 0,6 | 1009,1 |
| 4 | Los Colihues | 02-09-2026 00:45 | 8,5 | 98,5 | 0 | 0 | 247 | 0,6 | 1009,6 |
| 3 | Los Colihues | 02-09-2026 00:30 | 9,1 | 98,6 | 0 | 0 | 247 | 0,6 | 1009,8 |
| 2 | Los Colihues | 02-09-2026 00:15 | 9,1 | 98 | 0 | 0 | 247 | 0,6 | 1010 |
| 1 | Los Colihues | 02-09-2026 00:00 | 9,3 | 98 | 0 | 0 | 247 | 0,6 | 1010 |